Terminal Aerodrome Forecast
Issued by NWS Pocatello, ID

Home | Current Version | Previous Version | Text Only | Print | Product List | Glossary On
Versions: 1 2 3 4 5 6 7 8 9 10 11 12 13 14 15 16 17 18 19 20 21 22
000
FTUS45 KPIH 251120
TAFPIH
TAF
KPIH 251120Z 2512/2612 VRB06KT P6SM SCT100
      TEMPO 2512/2514 5SM BR SCT002
     FM251400 24011KT P6SM BKN100
     FM251900 26011G20KT P6SM VCTS BKN090CB
     FM260300 21011KT P6SM BKN100=

USA.gov is the U.S. government's official web portal to all federal, state and local government web resources and services.